Time;durP1;ratioP1;P1;durP2;ratioP2;P2;SDS_P1;SDS_P2;PMS_P1;PMS_P2;Temp;Humidity;BMP_temperature;BMP_pressure;BME280_temperature;BME280_humidity;BME280_pressure;Samples;Min_cycle;Max_cycle;Signal;HPM_P1;HPM_P2
2024/01/07 00:01:23;;;;;;;;;8.00;5.00;;;;;;;;5041453;28;29615;-78
2024/01/07 00:03:48;;;;;;;;;6.00;6.00;;;;;;;;5058230;28;28584;-79
2024/01/07 00:06:14;;;;;;;;;8.67;6.67;;;;;;;;5045864;28;30440;-79
2024/01/07 00:08:39;;;;;;;;;13.00;11.00;;;;;;;;5047910;28;28520;-78
2024/01/07 00:11:04;;;;;;;;;6.33;5.00;;;;;;;;5052378;28;28753;-78
2024/01/07 00:13:29;;;;;;;;;25.33;20.33;;;;;;;;5048656;28;28520;-79
2024/01/07 00:15:55;;;;;;;;;8.00;7.00;;;;;;;;5048533;28;28885;-79
2024/01/07 00:18:21;;;;;;;;;12.00;7.33;;;;;;;;5046044;28;30116;-79
2024/01/07 00:20:47;;;;;;;;;4.00;4.00;;;;;;;;5048485;28;28582;-79
2024/01/07 00:23:12;;;;;;;;;6.33;5.00;;;;;;;;5047752;28;28445;-79
2024/01/07 00:25:37;;;;;;;;;9.33;7.67;;;;;;;;5047269;28;28552;-80
2024/01/07 00:28:02;;;;;;;;;10.33;8.67;;;;;;;;5043995;28;29353;-79
2024/01/07 00:30:28;;;;;;;;;15.00;13.67;;;;;;;;5058767;28;28414;-79
2024/01/07 00:32:53;;;;;;;;;17.67;14.00;;;;;;;;5063774;28;28930;-78
2024/01/07 00:35:18;;;;;;;;;13.67;9.33;;;;;;;;5041531;28;29081;-77
2024/01/07 00:37:44;;;;;;;;;18.33;9.00;;;;;;;;5047838;28;28818;-78
2024/01/07 00:40:09;;;;;;;;;11.00;7.67;;;;;;;;5039127;28;28532;-79
2024/01/07 00:42:34;;;;;;;;;13.67;8.00;;;;;;;;5044308;28;28600;-79
2024/01/07 00:45:00;;;;;;;;;6.00;5.00;;;;;;;;5047779;28;28436;-76
2024/01/07 00:47:25;;;;;;;;;20.67;19.00;;;;;;;;5047758;28;28476;-77
2024/01/07 00:49:50;;;;;;;;;23.33;20.33;;;;;;;;5043255;28;28781;-79
2024/01/07 00:52:15;;;;;;;;;4.33;4.00;;;;;;;;5058188;28;28634;-78
2024/01/07 00:54:40;;;;;;;;;4.33;3.00;;;;;;;;5043219;28;28692;-79
2024/01/07 00:57:06;;;;;;;;;5.67;3.67;;;;;;;;5053093;28;28653;-79
2024/01/07 00:59:31;;;;;;;;;4.67;4.33;;;;;;;;5057157;28;28533;-78
2024/01/07 01:01:56;;;;;;;;;6.67;4.00;;;;;;;;5054009;28;28439;-77
2024/01/07 01:04:21;;;;;;;;;4.67;4.00;;;;;;;;5062675;28;28415;-77
2024/01/07 01:06:47;;;;;;;;;8.67;8.67;;;;;;;;5068843;28;28577;-79
2024/01/07 01:09:12;;;;;;;;;5.00;4.00;;;;;;;;5068252;28;28449;-79
2024/01/07 01:11:37;;;;;;;;;4.67;2.00;;;;;;;;5049860;28;28422;-79
2024/01/07 01:14:02;;;;;;;;;10.00;7.00;;;;;;;;5046488;28;28859;-78
2024/01/07 01:16:28;;;;;;;;;2.00;2.00;;;;;;;;5049904;28;29323;-80
2024/01/07 01:18:53;;;;;;;;;2.00;2.00;;;;;;;;5050137;28;28837;-79
2024/01/07 01:21:18;;;;;;;;;2.00;2.00;;;;;;;;5066483;28;28860;-80
2024/01/07 01:23:43;;;;;;;;;3.00;3.00;;;;;;;;5064958;28;28612;-78
2024/01/07 01:26:09;;;;;;;;;2.00;2.00;;;;;;;;5068063;28;28489;-79
2024/01/07 01:28:34;;;;;;;;;2.00;1.00;;;;;;;;5048556;28;28946;-79
2024/01/07 01:30:59;;;;;;;;;2.33;2.33;;;;;;;;5050600;28;28404;-80
2024/01/07 01:33:25;;;;;;;;;2.67;1.33;;;;;;;;5049483;28;30087;-80
2024/01/07 01:35:50;;;;;;;;;4.67;2.33;;;;;;;;5065972;28;28606;-78
2024/01/07 01:38:15;;;;;;;;;2.00;2.00;;;;;;;;5045904;28;28517;-76
2024/01/07 01:40:40;;;;;;;;;3.00;1.33;;;;;;;;5047893;28;29504;-78
2024/01/07 01:43:05;;;;;;;;;2.00;2.00;;;;;;;;5067448;28;28529;-76
2024/01/07 01:45:31;;;;;;;;;5.00;2.00;;;;;;;;5048807;28;30134;-78
2024/01/07 01:47:56;;;;;;;;;2.00;2.00;;;;;;;;5067485;28;28541;-77
2024/01/07 01:50:22;;;;;;;;;3.67;2.00;;;;;;;;5067192;28;28543;-76
2024/01/07 01:52:47;;;;;;;;;1.00;1.00;;;;;;;;5062009;28;28907;-78
2024/01/07 01:55:13;;;;;;;;;1.00;1.00;;;;;;;;5048967;28;28555;-78
2024/01/07 01:57:39;;;;;;;;;1.00;1.00;;;;;;;;5068137;28;28451;-78
2024/01/07 02:00:05;;;;;;;;;1.67;1.67;;;;;;;;5043952;28;28986;-79
2024/01/07 02:02:31;;;;;;;;;2.00;2.00;;;;;;;;5042829;28;29561;-75
2024/01/07 02:04:57;;;;;;;;;1.33;1.33;;;;;;;;5049567;28;30281;-78
2024/01/07 02:07:22;;;;;;;;;1.67;0.00;;;;;;;;5068025;28;28492;-78
2024/01/07 02:09:47;;;;;;;;;2.00;2.00;;;;;;;;5067890;28;28538;-78
2024/01/07 02:12:12;;;;;;;;;2.00;2.00;;;;;;;;5067605;28;28834;-77
2024/01/07 02:14:39;;;;;;;;;1.00;1.00;;;;;;;;5067754;28;28784;-76
2024/01/07 02:17:04;;;;;;;;;2.00;1.00;;;;;;;;5067784;28;28584;-77
2024/01/07 02:19:29;;;;;;;;;3.33;3.00;;;;;;;;5067125;28;28487;-77
2024/01/07 02:21:54;;;;;;;;;1.00;1.00;;;;;;;;5067668;28;28929;-78
2024/01/07 02:24:20;;;;;;;;;2.33;2.00;;;;;;;;5067303;28;28451;-77
2024/01/07 02:26:45;;;;;;;;;1.00;1.00;;;;;;;;5067626;28;28825;-79
2024/01/07 02:29:10;;;;;;;;;1.00;1.00;;;;;;;;5067335;28;28487;-78
2024/01/07 02:31:36;;;;;;;;;4.00;3.00;;;;;;;;5067704;28;28459;-77
2024/01/07 02:34:01;;;;;;;;;2.67;2.33;;;;;;;;5067307;28;30078;-76
2024/01/07 02:36:26;;;;;;;;;4.33;2.00;;;;;;;;5049028;28;28619;-76
2024/01/07 02:38:51;;;;;;;;;2.67;2.67;;;;;;;;5060661;28;28542;-78
2024/01/07 02:41:17;;;;;;;;;2.00;2.00;;;;;;;;5065089;28;28426;-78
2024/01/07 02:43:42;;;;;;;;;4.33;3.00;;;;;;;;5046088;28;29951;-78
2024/01/07 02:46:07;;;;;;;;;4.00;1.00;;;;;;;;5065783;28;28472;-78
2024/01/07 02:48:33;;;;;;;;;4.00;1.00;;;;;;;;5067681;28;28628;-77
2024/01/07 02:50:58;;;;;;;;;1.33;1.00;;;;;;;;5067395;28;28821;-77
2024/01/07 02:53:23;;;;;;;;;3.00;3.00;;;;;;;;5066735;28;29268;-78
2024/01/07 02:55:48;;;;;;;;;2.00;2.00;;;;;;;;5065831;28;28398;-77
2024/01/07 02:58:14;;;;;;;;;1.00;1.00;;;;;;;;5064717;28;28646;-77
2024/01/07 03:00:39;;;;;;;;;2.00;2.00;;;;;;;;5066997;28;28797;-79
2024/01/07 03:03:04;;;;;;;;;2.00;2.00;;;;;;;;5066627;28;29550;-78
2024/01/07 03:05:32;;;;;;;;;2.00;1.00;;;;;;;;5060516;28;28810;-78
2024/01/07 03:07:58;;;;;;;;;1.33;1.33;;;;;;;;5066896;28;28508;-76
2024/01/07 03:10:23;;;;;;;;;1.33;1.00;;;;;;;;5062851;28;29412;-77
2024/01/07 03:12:48;;;;;;;;;1.33;1.33;;;;;;;;5066844;28;28468;-78
2024/01/07 03:15:13;;;;;;;;;1.00;1.00;;;;;;;;5067534;28;28501;-78
2024/01/07 03:17:39;;;;;;;;;2.33;2.00;;;;;;;;5067953;28;28473;-76
2024/01/07 03:20:04;;;;;;;;;3.00;2.00;;;;;;;;5061035;28;28478;-77
2024/01/07 03:22:29;;;;;;;;;1.67;1.33;;;;;;;;5062925;28;28658;-78
2024/01/07 03:24:55;;;;;;;;;2.33;1.33;;;;;;;;5065460;28;29289;-77
2024/01/07 03:27:20;;;;;;;;;1.00;1.00;;;;;;;;5047634;28;28999;-77
2024/01/07 03:29:45;;;;;;;;;1.67;1.67;;;;;;;;5046848;28;28985;-77
2024/01/07 03:32:10;;;;;;;;;3.67;2.00;;;;;;;;5065772;28;29271;-77
2024/01/07 03:34:36;;;;;;;;;2.00;2.00;;;;;;;;5066337;28;28474;-76
2024/01/07 03:37:01;;;;;;;;;3.33;2.00;;;;;;;;5066366;28;28517;-75
2024/01/07 03:39:26;;;;;;;;;2.00;2.00;;;;;;;;5065415;28;28542;-75
2024/01/07 03:41:54;;;;;;;;;4.33;2.33;;;;;;;;5064268;28;29196;-76
2024/01/07 03:44:19;;;;;;;;;2.00;2.00;;;;;;;;5046731;28;28947;-79
2024/01/07 03:46:45;;;;;;;;;1.00;1.00;;;;;;;;5067420;28;29132;-77
2024/01/07 03:49:10;;;;;;;;;5.33;1.33;;;;;;;;5057816;28;28617;-77
2024/01/07 03:51:35;;;;;;;;;1.33;0.00;;;;;;;;5066010;28;28522;-77
2024/01/07 03:54:00;;;;;;;;;1.00;1.00;;;;;;;;5051785;28;28483;-79
2024/01/07 03:56:25;;;;;;;;;2.00;1.00;;;;;;;;5070665;28;28476;-77
2024/01/07 03:58:51;;;;;;;;;2.67;1.33;;;;;;;;5070582;28;28698;-80
2024/01/07 04:01:17;;;;;;;;;3.00;2.00;;;;;;;;5051486;28;29701;-76
2024/01/07 04:03:42;;;;;;;;;3.00;3.00;;;;;;;;5062753;28;28403;-76
2024/01/07 04:06:08;;;;;;;;;5.33;1.00;;;;;;;;5051871;28;28388;-76
2024/01/07 04:08:33;;;;;;;;;3.33;1.67;;;;;;;;5068248;28;28906;-76
2024/01/07 04:11:01;;;;;;;;;2.33;1.00;;;;;;;;5069173;28;29192;-77
2024/01/07 04:13:26;;;;;;;;;1.00;1.00;;;;;;;;5069455;28;28963;-76
2024/01/07 04:15:51;;;;;;;;;1.33;1.33;;;;;;;;5068853;28;28433;-76
2024/01/07 04:18:17;;;;;;;;;2.00;1.00;;;;;;;;5069061;28;29388;-76
2024/01/07 04:20:42;;;;;;;;;1.00;1.00;;;;;;;;5069577;28;28679;-76
2024/01/07 04:23:07;;;;;;;;;3.33;2.33;;;;;;;;5069673;28;28758;-76
2024/01/07 04:25:32;;;;;;;;;2.00;0.00;;;;;;;;5069165;28;28848;-77
2024/01/07 04:27:58;;;;;;;;;1.00;1.00;;;;;;;;5068449;28;28732;-77
2024/01/07 04:30:23;;;;;;;;;1.67;1.67;;;;;;;;5068648;28;29723;-76
2024/01/07 04:32:48;;;;;;;;;2.00;1.00;;;;;;;;5068638;28;28509;-77
2024/01/07 04:35:13;;;;;;;;;2.67;2.67;;;;;;;;5069211;28;28822;-76
2024/01/07 04:37:39;;;;;;;;;2.00;2.00;;;;;;;;5068885;28;29381;-73
2024/01/07 04:40:04;;;;;;;;;2.00;1.00;;;;;;;;5050669;28;29901;-76
2024/01/07 04:42:30;;;;;;;;;2.00;1.00;;;;;;;;5069414;28;28465;-77
2024/01/07 04:44:55;;;;;;;;;1.00;1.00;;;;;;;;5050645;28;28569;-76
2024/01/07 04:47:30;;;;;;;;;3.33;1.67;;;;;;;;5050908;28;28820;-75
2024/01/07 04:49:56;;;;;;;;;5.00;2.00;;;;;;;;5056809;28;28516;-77
2024/01/07 04:52:24;;;;;;;;;3.33;2.67;;;;;;;;5069636;28;28743;-76
2024/01/07 04:54:52;;;;;;;;;2.00;2.00;;;;;;;;5085050;28;28375;-78
2024/01/07 04:57:18;;;;;;;;;4.00;1.67;;;;;;;;5081674;28;28358;-77
2024/01/07 04:59:43;;;;;;;;;2.00;2.00;;;;;;;;5069725;28;28385;-78
2024/01/07 05:02:08;;;;;;;;;2.33;1.00;;;;;;;;5083981;28;28591;-78
2024/01/07 05:04:35;;;;;;;;;2.00;1.00;;;;;;;;5082870;28;28190;-77
2024/01/07 05:07:00;;;;;;;;;3.00;1.67;;;;;;;;5082859;28;28491;-77
2024/01/07 05:09:25;;;;;;;;;4.00;1.67;;;;;;;;5081750;28;28388;-77
2024/01/07 05:11:51;;;;;;;;;2.33;1.33;;;;;;;;5056089;28;28935;-77
2024/01/07 05:14:16;;;;;;;;;2.33;1.33;;;;;;;;5051281;28;28479;-78
2024/01/07 05:16:41;;;;;;;;;3.67;2.00;;;;;;;;5070683;28;28537;-76
2024/01/07 05:19:07;;;;;;;;;4.67;3.67;;;;;;;;5073356;28;28399;-76
2024/01/07 05:21:32;;;;;;;;;3.00;2.00;;;;;;;;5055386;28;28607;-76
2024/01/07 05:23:57;;;;;;;;;6.00;3.67;;;;;;;;5066325;28;28672;-79
2024/01/07 05:26:22;;;;;;;;;0.00;0.00;;;;;;;;5049778;28;29574;-77
2024/01/07 05:28:48;;;;;;;;;3.00;2.00;;;;;;;;5070955;28;28873;-78
2024/01/07 05:31:14;;;;;;;;;5.67;3.67;;;;;;;;5070163;28;28628;-77
2024/01/07 05:33:39;;;;;;;;;2.33;1.33;;;;;;;;5068317;28;28613;-78
2024/01/07 05:36:04;;;;;;;;;3.00;1.67;;;;;;;;5068662;28;28948;-78
2024/01/07 05:38:29;;;;;;;;;2.00;2.00;;;;;;;;5050623;28;29343;-78
2024/01/07 05:40:55;;;;;;;;;2.00;2.00;;;;;;;;5067506;28;28671;-78
2024/01/07 05:43:20;;;;;;;;;3.00;1.00;;;;;;;;5065342;28;29101;-78
2024/01/07 05:45:46;;;;;;;;;1.00;1.00;;;;;;;;5067582;28;28887;-79
2024/01/07 05:48:11;;;;;;;;;1.00;1.00;;;;;;;;5068216;28;29628;-77
2024/01/07 05:50:36;;;;;;;;;2.00;2.00;;;;;;;;5068681;28;29068;-79
2024/01/07 05:53:01;;;;;;;;;2.67;1.67;;;;;;;;5068774;28;28823;-77
2024/01/07 05:55:26;;;;;;;;;6.00;2.67;;;;;;;;5050130;28;29544;-78
2024/01/07 05:57:52;;;;;;;;;2.33;2.33;;;;;;;;5050145;28;29033;-78
2024/01/07 06:00:17;;;;;;;;;1.67;1.67;;;;;;;;5068428;28;28576;-79
2024/01/07 06:02:42;;;;;;;;;2.33;2.00;;;;;;;;5068403;28;28501;-78
2024/01/07 06:05:08;;;;;;;;;0.00;0.00;;;;;;;;5065264;28;28506;-79
2024/01/07 06:07:33;;;;;;;;;1.00;1.00;;;;;;;;5037632;28;30262;-78
2024/01/07 06:09:59;;;;;;;;;2.00;2.00;;;;;;;;5062823;28;28986;-77
2024/01/07 06:12:24;;;;;;;;;2.00;2.00;;;;;;;;5067615;28;28534;-79
2024/01/07 06:14:49;;;;;;;;;1.00;1.00;;;;;;;;5058133;28;28418;-77
2024/01/07 06:17:14;;;;;;;;;5.00;2.00;;;;;;;;5066867;28;28399;-78
2024/01/07 06:19:39;;;;;;;;;2.00;2.00;;;;;;;;5033798;28;28021;-79
2024/01/07 06:22:05;;;;;;;;;4.00;2.00;;;;;;;;5067917;28;28407;-79
2024/01/07 06:24:30;;;;;;;;;4.67;2.00;;;;;;;;5064571;28;28484;-80
2024/01/07 06:26:55;;;;;;;;;1.33;1.00;;;;;;;;5043161;28;29217;-75
2024/01/07 06:29:20;;;;;;;;;4.00;4.00;;;;;;;;5045584;28;28585;-75
2024/01/07 06:31:46;;;;;;;;;2.33;2.33;;;;;;;;5048467;28;28431;-76
2024/01/07 06:34:13;;;;;;;;;2.67;2.00;;;;;;;;5045743;28;28438;-76
2024/01/07 06:36:38;;;;;;;;;2.33;2.00;;;;;;;;5046242;28;28563;-77
2024/01/07 06:39:05;;;;;;;;;4.00;2.00;;;;;;;;5045795;28;28727;-75
2024/01/07 06:41:30;;;;;;;;;1.00;1.00;;;;;;;;5049598;28;28861;-74
2024/01/07 06:43:56;;;;;;;;;2.33;2.00;;;;;;;;5055483;28;28860;-75
2024/01/07 06:46:22;;;;;;;;;3.67;2.00;;;;;;;;5061882;28;28821;-76
2024/01/07 06:48:47;;;;;;;;;5.00;3.00;;;;;;;;5061544;28;28592;-76
2024/01/07 06:51:13;;;;;;;;;3.00;2.00;;;;;;;;5053007;28;28990;-76
2024/01/07 06:53:39;;;;;;;;;3.00;2.00;;;;;;;;5056871;28;28959;-75
2024/01/07 06:56:04;;;;;;;;;2.67;2.67;;;;;;;;5060668;28;28399;-75
2024/01/07 06:58:29;;;;;;;;;3.00;3.00;;;;;;;;5054050;28;28510;-76
2024/01/07 07:00:54;;;;;;;;;2.00;2.00;;;;;;;;5049749;28;28527;-77
2024/01/07 07:03:20;;;;;;;;;4.00;2.00;;;;;;;;5055906;28;28433;-83
2024/01/07 07:05:45;;;;;;;;;3.67;2.00;;;;;;;;5068600;28;29753;-77
2024/01/07 07:08:10;;;;;;;;;2.33;2.33;;;;;;;;5049651;28;28523;-78
2024/01/07 07:10:36;;;;;;;;;3.00;3.00;;;;;;;;5066613;28;28495;-76
2024/01/07 07:13:01;;;;;;;;;2.33;2.33;;;;;;;;5048829;28;29840;-74
2024/01/07 07:15:28;;;;;;;;;1.33;1.00;;;;;;;;5053778;28;29164;-73
2024/01/07 07:17:53;;;;;;;;;6.67;5.00;;;;;;;;5066475;28;28556;-81
2024/01/07 07:20:19;;;;;;;;;5.33;4.00;;;;;;;;5067287;28;28548;-73
2024/01/07 07:22:44;;;;;;;;;2.33;2.33;;;;;;;;5066394;28;28560;-75
2024/01/07 07:25:11;;;;;;;;;6.00;3.67;;;;;;;;5063654;28;29202;-75
2024/01/07 07:27:37;;;;;;;;;3.00;3.00;;;;;;;;5067479;28;28537;-76
2024/01/07 07:30:02;;;;;;;;;4.67;4.00;;;;;;;;5067722;28;28689;-75
2024/01/07 07:32:28;;;;;;;;;6.33;4.00;;;;;;;;5068381;28;28495;-74
2024/01/07 07:34:53;;;;;;;;;4.00;1.00;;;;;;;;5064847;28;28568;-76
2024/01/07 07:37:18;;;;;;;;;3.33;2.00;;;;;;;;5067552;28;28901;-77
2024/01/07 07:39:43;;;;;;;;;4.33;3.00;;;;;;;;5067812;28;28625;-76
2024/01/07 07:42:10;;;;;;;;;6.00;3.00;;;;;;;;5069183;28;28554;-76
2024/01/07 07:44:36;;;;;;;;;3.67;3.67;;;;;;;;5068514;28;28440;-76
2024/01/07 07:47:01;;;;;;;;;5.00;4.67;;;;;;;;5057535;28;28608;-74
2024/01/07 07:49:26;;;;;;;;;6.00;6.00;;;;;;;;5059212;28;28714;-75
2024/01/07 07:51:51;;;;;;;;;7.00;5.00;;;;;;;;5067595;28;28986;-75
2024/01/07 07:54:17;;;;;;;;;6.33;4.67;;;;;;;;5067638;28;29133;-74
2024/01/07 07:56:42;;;;;;;;;4.00;4.00;;;;;;;;5067534;28;28903;-77
2024/01/07 07:59:08;;;;;;;;;14.00;10.33;;;;;;;;5067374;28;29008;-75
2024/01/07 08:01:34;;;;;;;;;6.00;6.00;;;;;;;;5048454;28;29650;-77
2024/01/07 08:03:59;;;;;;;;;14.00;11.00;;;;;;;;5067037;28;29445;-79
2024/01/07 08:06:24;;;;;;;;;6.33;6.33;;;;;;;;5064515;28;28682;-77
2024/01/07 08:08:49;;;;;;;;;8.00;5.33;;;;;;;;5054062;28;28565;-74
2024/01/07 08:11:15;;;;;;;;;13.33;11.67;;;;;;;;5063206;28;28871;-73
2024/01/07 08:13:41;;;;;;;;;6.67;6.00;;;;;;;;5065663;28;28587;-75
2024/01/07 08:16:06;;;;;;;;;10.67;7.67;;;;;;;;5036966;28;28686;-75
2024/01/07 08:18:32;;;;;;;;;13.33;10.00;;;;;;;;5042184;28;28904;-74
2024/01/07 08:20:57;;;;;;;;;7.00;6.00;;;;;;;;5042403;28;29550;-75
2024/01/07 08:23:23;;;;;;;;;6.00;6.00;;;;;;;;5057995;28;29021;-74
2024/01/07 08:25:48;;;;;;;;;9.00;7.67;;;;;;;;5044155;28;28788;-75
2024/01/07 08:28:14;;;;;;;;;12.00;8.00;;;;;;;;5039357;28;28701;-74
2024/01/07 08:30:39;;;;;;;;;9.33;9.33;;;;;;;;5048094;28;29424;-73
2024/01/07 08:33:04;;;;;;;;;7.67;6.67;;;;;;;;5066828;28;28773;-73
2024/01/07 08:35:29;;;;;;;;;7.00;7.00;;;;;;;;5066556;28;28835;-74
2024/01/07 08:37:55;;;;;;;;;6.33;6.00;;;;;;;;5038684;28;28576;-73
2024/01/07 08:40:20;;;;;;;;;5.67;5.67;;;;;;;;5060387;28;29504;-72
2024/01/07 08:42:45;;;;;;;;;6.33;6.00;;;;;;;;5046322;28;30677;-73
2024/01/07 08:45:11;;;;;;;;;7.33;7.00;;;;;;;;5055640;28;28508;-74
2024/01/07 08:47:36;;;;;;;;;6.00;6.00;;;;;;;;5052634;28;28462;-75
2024/01/07 08:50:03;;;;;;;;;9.67;8.00;;;;;;;;5056248;28;28589;-76
2024/01/07 08:52:28;;;;;;;;;8.33;7.00;;;;;;;;5055543;28;29153;-74
2024/01/07 08:54:54;;;;;;;;;8.33;6.00;;;;;;;;5053146;28;28506;-82
2024/01/07 08:57:20;;;;;;;;;10.00;7.00;;;;;;;;5039708;28;28546;-84
2024/01/07 08:59:45;;;;;;;;;12.33;6.33;;;;;;;;5035139;28;29060;-82
2024/01/07 09:02:13;;;;;;;;;5.33;3.33;;;;;;;;5062571;28;28618;-81
2024/01/07 09:04:39;;;;;;;;;10.00;7.00;;;;;;;;5067714;28;28969;-83
2024/01/07 09:07:19;;;;;;;;;6.67;5.00;;;;;;;;5053914;28;28920;-83
2024/01/07 09:09:44;;;;;;;;;11.33;9.67;;;;;;;;5052719;28;29028;-79
2024/01/07 09:12:38;;;;;;;;;10.00;6.00;;;;;;;;5047407;28;28557;-83
2024/01/07 09:15:04;;;;;;;;;8.33;8.33;;;;;;;;5049119;28;28584;-82
2024/01/07 09:17:30;;;;;;;;;9.67;7.67;;;;;;;;5052565;28;28614;-74
2024/01/07 09:19:55;;;;;;;;;10.33;8.67;;;;;;;;5029407;28;29392;-74
2024/01/07 09:22:21;;;;;;;;;10.00;9.67;;;;;;;;5050903;28;28843;-75
2024/01/07 09:24:46;;;;;;;;;11.67;10.00;;;;;;;;5031674;28;28657;-74
2024/01/07 09:27:11;;;;;;;;;9.33;9.33;;;;;;;;5052315;28;28525;-73
2024/01/07 09:29:37;;;;;;;;;10.33;10.00;;;;;;;;5031631;28;29356;-74
2024/01/07 09:32:02;;;;;;;;;11.67;8.67;;;;;;;;5052202;28;28476;-75
2024/01/07 09:34:27;;;;;;;;;13.33;12.33;;;;;;;;5051228;28;28498;-75
2024/01/07 09:36:52;;;;;;;;;14.00;12.00;;;;;;;;5050994;28;28556;-76
2024/01/07 09:39:17;;;;;;;;;13.00;11.67;;;;;;;;5057763;28;28558;-73
2024/01/07 09:41:43;;;;;;;;;14.00;12.33;;;;;;;;5046548;28;28921;-78
2024/01/07 09:44:08;;;;;;;;;12.00;11.00;;;;;;;;5051108;28;28450;-75
2024/01/07 09:46:37;;;;;;;;;25.67;16.67;;;;;;;;5049031;28;28757;-73
2024/01/07 09:49:02;;;;;;;;;13.33;11.33;;;;;;;;5062248;28;28899;-75
2024/01/07 09:51:28;;;;;;;;;23.00;17.33;;;;;;;;5054721;28;28865;-78
2024/01/07 09:53:56;;;;;;;;;14.67;14.00;;;;;;;;5048465;28;28525;-73
2024/01/07 09:56:25;;;;;;;;;16.00;13.67;;;;;;;;5033394;28;28718;-73
2024/01/07 09:58:51;;;;;;;;;24.67;17.00;;;;;;;;5048071;28;28536;-75
2024/01/07 10:01:17;;;;;;;;;16.67;14.00;;;;;;;;5028624;28;31219;-73
2024/01/07 10:03:42;;;;;;;;;15.33;14.67;;;;;;;;5053603;28;28774;-74
2024/01/07 10:06:07;;;;;;;;;12.67;11.00;;;;;;;;5067984;28;28540;-72
2024/01/07 10:08:33;;;;;;;;;14.00;13.67;;;;;;;;5066690;28;28457;-73
2024/01/07 10:10:58;;;;;;;;;13.67;13.00;;;;;;;;5066229;28;29151;-78
2024/01/07 10:13:23;;;;;;;;;12.33;8.00;;;;;;;;5063973;28;28795;-72
2024/01/07 10:15:49;;;;;;;;;20.00;14.00;;;;;;;;5066825;28;28825;-73
2024/01/07 10:18:14;;;;;;;;;19.00;13.00;;;;;;;;5066852;28;28492;-73
2024/01/07 10:20:39;;;;;;;;;11.00;9.67;;;;;;;;5066714;28;29385;-74
2024/01/07 10:23:04;;;;;;;;;14.33;10.67;;;;;;;;5066995;28;28567;-73
2024/01/07 10:25:32;;;;;;;;;12.67;12.67;;;;;;;;5066601;28;28788;-72
2024/01/07 10:28:01;;;;;;;;;14.00;12.33;;;;;;;;5048906;28;29794;-72
2024/01/07 10:30:27;;;;;;;;;17.00;12.67;;;;;;;;5065072;28;28533;-71
2024/01/07 10:32:58;;;;;;;;;13.67;13.00;;;;;;;;5063505;28;28433;-73
2024/01/07 10:35:34;;;;;;;;;15.67;15.00;;;;;;;;5064181;28;28595;-73
2024/01/07 10:38:00;;;;;;;;;18.00;15.33;;;;;;;;5061519;28;28858;-73
2024/01/07 10:40:27;;;;;;;;;16.00;13.00;;;;;;;;5068070;28;28560;-74
2024/01/07 10:42:52;;;;;;;;;15.33;12.00;;;;;;;;5067046;28;28504;-72
2024/01/07 10:45:17;;;;;;;;;20.33;18.67;;;;;;;;5065562;28;28624;-72
2024/01/07 10:47:47;;;;;;;;;13.33;12.33;;;;;;;;5065004;28;29638;-72
2024/01/07 10:50:13;;;;;;;;;15.67;15.33;;;;;;;;5065277;28;28920;-71
2024/01/07 10:52:40;;;;;;;;;17.67;14.67;;;;;;;;5067770;28;28660;-72
2024/01/07 10:55:09;;;;;;;;;15.00;13.00;;;;;;;;5049318;28;28357;-72
2024/01/07 10:57:40;;;;;;;;;17.33;14.33;;;;;;;;5049019;28;28881;-71
2024/01/07 11:00:07;;;;;;;;;19.33;17.00;;;;;;;;5051881;28;28584;-71
2024/01/07 11:02:38;;;;;;;;;16.33;12.67;;;;;;;;5047891;28;28667;-71
2024/01/07 11:05:09;;;;;;;;;22.33;19.33;;;;;;;;5048639;28;28574;-72
2024/01/07 11:07:37;;;;;;;;;18.67;16.67;;;;;;;;5065214;28;28551;-73
2024/01/07 11:10:09;;;;;;;;;30.00;25.33;;;;;;;;5065953;28;28501;-72
2024/01/07 11:12:34;;;;;;;;;27.33;23.33;;;;;;;;5066782;28;28457;-72
2024/01/07 11:15:00;;;;;;;;;24.00;20.67;;;;;;;;5066893;28;28830;-71
2024/01/07 11:17:37;;;;;;;;;28.75;23.00;;;;;;;;5048717;28;29631;-73
2024/01/07 11:20:04;;;;;;;;;23.00;17.50;;;;;;;;5048200;28;30360;-72
2024/01/07 11:22:32;;;;;;;;;21.67;20.67;;;;;;;;5066325;28;28884;-71
2024/01/07 11:24:59;;;;;;;;;24.25;21.25;;;;;;;;5047924;28;28827;-72
2024/01/07 11:27:25;;;;;;;;;12.67;12.33;;;;;;;;5067136;28;28860;-72
2024/01/07 11:29:55;;;;;;;;;23.75;21.75;;;;;;;;5067930;28;30076;-74
2024/01/07 11:32:25;;;;;;;;;34.00;24.67;;;;;;;;5060993;28;28938;-73
2024/01/07 11:34:53;;;;;;;;;31.00;22.00;;;;;;;;5066641;28;29099;-73
2024/01/07 11:37:19;;;;;;;;;26.33;21.00;;;;;;;;5066310;28;28509;-73
2024/01/07 11:39:45;;;;;;;;;28.33;21.00;;;;;;;;5045448;28;28573;-72
2024/01/07 11:42:11;;;;;;;;;29.33;23.00;;;;;;;;5047285;28;28811;-73
2024/01/07 11:44:37;;;;;;;;;23.67;22.33;;;;;;;;5048503;28;28921;-72
2024/01/07 11:47:02;;;;;;;;;19.33;17.67;;;;;;;;5047738;28;30006;-72
2024/01/07 11:49:28;;;;;;;;;41.25;35.00;;;;;;;;5047746;28;30936;-72
2024/01/07 11:51:53;;;;;;;;;34.50;23.75;;;;;;;;5066112;28;28499;-71
2024/01/07 11:54:19;;;;;;;;;26.50;22.75;;;;;;;;5047857;28;28521;-71
2024/01/07 11:56:44;;;;;;;;;29.50;22.25;;;;;;;;5066002;28;28831;-71
2024/01/07 11:59:09;;;;;;;;;42.00;35.50;;;;;;;;5066580;28;28532;-71
2024/01/07 12:01:35;;;;;;;;;34.00;30.25;;;;;;;;5065815;28;29153;-72
2024/01/07 12:04:00;;;;;;;;;27.00;25.25;;;;;;;;5066077;28;28549;-72
2024/01/07 12:06:26;;;;;;;;;33.25;28.75;;;;;;;;5047451;28;29443;-73
2024/01/07 12:08:52;;;;;;;;;29.00;25.50;;;;;;;;5065886;28;28657;-72
2024/01/07 12:11:18;;;;;;;;;31.75;28.75;;;;;;;;5064962;28;28570;-71
2024/01/07 12:13:44;;;;;;;;;24.50;20.00;;;;;;;;5064897;28;28991;-71
2024/01/07 12:16:10;;;;;;;;;36.00;31.00;;;;;;;;5069067;28;28885;-72
2024/01/07 12:18:39;;;;;;;;;35.50;30.25;;;;;;;;5068962;28;28796;-72
2024/01/07 12:21:04;;;;;;;;;18.75;16.75;;;;;;;;5069258;28;28454;-73
2024/01/07 12:23:34;;;;;;;;;34.50;26.00;;;;;;;;5034595;28;28959;-72
2024/01/07 12:26:07;;;;;;;;;34.25;29.00;;;;;;;;5067118;28;28771;-71
2024/01/07 12:28:32;;;;;;;;;61.25;49.50;;;;;;;;5067137;28;28632;-72
2024/01/07 12:30:57;;;;;;;;;36.00;31.25;;;;;;;;5069245;28;28793;-71
2024/01/07 12:33:22;;;;;;;;;31.00;29.75;;;;;;;;5070578;28;28909;-71
2024/01/07 12:35:48;;;;;;;;;38.25;32.25;;;;;;;;5052028;28;28532;-72
2024/01/07 12:38:13;;;;;;;;;34.50;30.25;;;;;;;;5069502;28;28599;-71
2024/01/07 12:40:39;;;;;;;;;47.00;35.50;;;;;;;;5051068;28;28451;-71
2024/01/07 12:43:06;;;;;;;;;44.00;36.25;;;;;;;;5069368;28;28513;-72
2024/01/07 12:45:32;;;;;;;;;41.25;33.50;;;;;;;;5050871;28;29424;-71
2024/01/07 12:47:58;;;;;;;;;40.00;33.00;;;;;;;;5068630;28;29337;-72
2024/01/07 12:50:27;;;;;;;;;37.50;31.75;;;;;;;;5068803;28;28668;-72
2024/01/07 12:52:53;;;;;;;;;41.25;34.00;;;;;;;;5068942;28;28520;-72
2024/01/07 12:55:18;;;;;;;;;35.00;31.25;;;;;;;;5065086;28;28588;-71
2024/01/07 12:57:43;;;;;;;;;36.50;27.75;;;;;;;;5049973;28;30120;-72
2024/01/07 13:00:09;;;;;;;;;43.00;35.25;;;;;;;;5068140;28;28738;-75
2024/01/07 13:02:34;;;;;;;;;29.25;25.50;;;;;;;;5074242;28;28659;-75
2024/01/07 13:04:59;;;;;;;;;36.50;30.75;;;;;;;;5074979;28;28589;-75
2024/01/07 13:07:25;;;;;;;;;36.00;28.00;;;;;;;;5082913;28;28618;-74
2024/01/07 13:09:54;;;;;;;;;46.25;34.50;;;;;;;;5079634;28;28820;-73
2024/01/07 13:12:19;;;;;;;;;44.25;32.00;;;;;;;;5076564;28;28244;-74
2024/01/07 13:14:46;;;;;;;;;43.00;33.25;;;;;;;;5080229;28;28779;-74
2024/01/07 13:17:12;;;;;;;;;36.25;32.25;;;;;;;;5073134;28;29074;-73
2024/01/07 13:19:37;;;;;;;;;33.75;30.25;;;;;;;;5073260;28;28793;-74
2024/01/07 13:22:02;;;;;;;;;40.75;34.75;;;;;;;;5062417;28;28829;-74
2024/01/07 13:24:27;;;;;;;;;36.50;31.25;;;;;;;;5063049;28;29017;-74
2024/01/07 13:26:53;;;;;;;;;42.75;33.50;;;;;;;;5054339;28;30108;-74
2024/01/07 13:29:18;;;;;;;;;49.75;36.50;;;;;;;;5070522;28;28925;-75
2024/01/07 13:31:43;;;;;;;;;26.00;26.00;;;;;;;;5074732;28;28602;-76
2024/01/07 13:34:09;;;;;;;;;45.50;35.00;;;;;;;;5077070;28;28625;-74
2024/01/07 13:36:34;;;;;;;;;41.00;33.75;;;;;;;;5075849;28;28585;-74
2024/01/07 13:38:59;;;;;;;;;38.00;29.00;;;;;;;;5077356;28;28466;-75
2024/01/07 13:41:28;;;;;;;;;37.75;33.75;;;;;;;;5075959;28;29101;-74
2024/01/07 13:43:55;;;;;;;;;37.50;28.00;;;;;;;;5078783;28;28450;-73
2024/01/07 13:46:23;;;;;;;;;41.75;35.50;;;;;;;;5070676;28;28494;-75
2024/01/07 13:48:48;;;;;;;;;35.50;31.25;;;;;;;;5067800;28;28568;-74
2024/01/07 13:51:13;;;;;;;;;37.00;31.50;;;;;;;;5068234;28;28912;-75
2024/01/07 13:53:38;;;;;;;;;37.75;32.75;;;;;;;;5068148;28;28490;-75
2024/01/07 13:56:04;;;;;;;;;34.50;31.50;;;;;;;;5067737;28;28844;-75
2024/01/07 13:58:29;;;;;;;;;33.75;30.00;;;;;;;;5049704;28;28806;-74
2024/01/07 14:00:54;;;;;;;;;33.00;29.00;;;;;;;;5049615;28;28510;-75
2024/01/07 14:03:20;;;;;;;;;29.25;28.25;;;;;;;;5068153;28;28491;-75
2024/01/07 14:05:45;;;;;;;;;38.75;31.25;;;;;;;;5062094;28;28970;-75
2024/01/07 14:08:11;;;;;;;;;38.00;31.75;;;;;;;;5047730;28;28453;-74
2024/01/07 14:10:36;;;;;;;;;40.75;31.75;;;;;;;;5047754;28;28518;-75
2024/01/07 14:13:02;;;;;;;;;44.25;33.50;;;;;;;;5047977;28;28407;-74
2024/01/07 14:15:28;;;;;;;;;36.00;30.75;;;;;;;;5042337;28;31391;-75
2024/01/07 14:17:53;;;;;;;;;48.00;38.75;;;;;;;;5047991;28;28573;-76
2024/01/07 14:20:19;;;;;;;;;28.25;26.25;;;;;;;;5044368;28;28636;-74
2024/01/07 14:22:44;;;;;;;;;41.00;33.50;;;;;;;;5047068;28;28640;-74
2024/01/07 14:25:09;;;;;;;;;38.00;32.50;;;;;;;;5051924;28;28490;-74